KCHD/CHD METAR and TAF weather

Enter ICAO airport designator
Station Type Date Time Source
KCHD METAR 2020/01/18 21:47 UTC NOAA

KCHD 182147Z 35010KT 10SM CLR 21/M02 A3016


Station Type Date Time Source
KCHD Decoded METAR 2020/01/18 21:47 UTC NOAA

Chandler, Chandler Municipal Airport, AZ, United States (KCHD) 33-16-09N 111-48-40W
Jan 18, 2020 - 04:47 PM EST / 2020.01.18 2147 UTC
Wind: from the N (350 degrees) at 12 MPH (10 KT):0
Visibility: 10 mile(s):0
Sky conditions: clear
Temperature: 69 F (21 C)
Dew Point: 28 F (-2 C)
Relative Humidity: 21%
Pressure (altimeter): 30.16 in. Hg (1021 hPa)
ob: KCHD 182147Z 35010KT 10SM CLR 21/M02 A3016
cycle: 22

Station Type Date Time Source
KCHD TAF UTC NOAA

Error!

Example: see airport list